createdAt,value
2023-01-13T00:00:09.499Z,100042.88
2023-01-13T00:07:43.809Z,100042.00
2023-01-13T00:15:19.221Z,100042.00
2023-01-13T00:22:53.180Z,100049.09
2023-01-13T00:30:28.472Z,100040.25
2023-01-13T00:38:02.462Z,100042.00
2023-01-13T00:45:39.385Z,100030.44
2023-01-13T00:53:13.961Z,100034.03
2023-01-13T01:00:50.544Z,100033.13
2023-01-13T01:08:25.706Z,100042.94
2023-01-13T01:16:01.314Z,100042.06
2023-01-13T01:23:36.516Z,100029.63
2023-01-13T01:31:13.979Z,100036.72
2023-01-13T01:38:48.934Z,100016.28
2023-01-13T01:46:23.993Z,100018.97
2023-01-13T01:54:01.553Z,100000.34
2023-01-13T02:01:38.053Z,100019.91
2023-01-13T02:09:13.836Z,100018.13
2023-01-13T02:16:59.261Z,100000.38
2023-01-13T02:25:11.852Z,99992.38
2023-01-13T02:32:59.972Z,99993.25
2023-01-13T02:40:38.510Z,99985.25
2023-01-13T02:48:16.676Z,99988.81
2023-01-13T02:55:54.476Z,99986.19
2023-01-13T03:03:29.811Z,99986.16
2023-01-13T03:11:08.295Z,99988.81
2023-01-13T03:18:52.073Z,99960.41
2023-01-13T03:26:32.880Z,99965.72
2023-01-13T03:34:15.015Z,99970.13
2023-01-13T03:41:53.527Z,99974.53
2023-01-13T03:49:35.970Z,99983.41
2023-01-13T03:57:13.553Z,99970.97
2023-01-13T04:04:53.518Z,99963.03
2023-01-13T04:12:51.227Z,99953.19
2023-01-13T04:20:26.476Z,99963.00
2023-01-13T04:28:00.207Z,99971.81
2023-01-13T04:35:36.473Z,99978.91
2023-01-13T04:43:10.621Z,99977.06
2023-01-13T04:50:46.079Z,99978.00
2023-01-13T04:58:19.924Z,99987.75
2023-01-13T05:05:55.085Z,99980.69
2023-01-13T05:13:55.224Z,99990.47
2023-01-13T05:21:47.990Z,99998.47
2023-01-13T05:29:21.767Z,99987.78
2023-01-13T05:36:57.199Z,99994.91
2023-01-13T05:44:30.970Z,100007.34
2023-01-13T05:52:06.311Z,100007.38
2023-01-13T05:59:40.244Z,100010.06
2023-01-13T06:07:15.482Z,100003.00
2023-01-13T06:14:49.599Z,100010.09
2023-01-13T06:22:28.453Z,100029.72
2023-01-13T06:30:02.260Z,100024.41
2023-01-13T06:37:39.122Z,100029.72
2023-01-13T06:45:13.024Z,99980.88
2023-01-13T06:52:48.372Z,100016.41
2023-01-13T07:00:23.648Z,100019.91
2023-01-13T07:07:58.757Z,100025.22
2023-01-13T07:15:32.870Z,99997.66
2023-01-13T07:23:09.699Z,100011.88
2023-01-13T07:30:43.608Z,99995.88
2023-01-13T07:38:18.905Z,99992.28
2023-01-13T07:45:57.244Z,100031.34
2023-01-13T07:53:32.622Z,100030.44
2023-01-13T08:01:09.482Z,100044.63
2023-01-13T08:08:44.832Z,100064.19
2023-01-13T08:16:18.721Z,100086.34
2023-01-13T08:23:53.953Z,100088.13
2023-01-13T08:31:27.873Z,100079.22
2023-01-13T08:39:03.154Z,100085.47
2023-01-13T08:46:37.643Z,100083.69
2023-01-13T08:54:13.640Z,100115.66
2023-01-13T09:01:47.636Z,100076.63
2023-01-13T09:09:23.863Z,99951.38
2023-01-13T09:16:58.588Z,100075.69
2023-01-13T09:24:34.003Z,100100.56
2023-01-13T09:32:08.419Z,100089.06
2023-01-13T09:39:43.895Z,100064.25
2023-01-13T09:47:25.584Z,100083.72
2023-01-13T09:55:06.194Z,100089.91
2023-01-13T10:02:57.624Z,100098.78
2023-01-13T10:10:38.742Z,100128.00
2023-01-13T10:18:20.989Z,100113.75
2023-01-13T10:26:08.259Z,100103.06
2023-01-13T10:33:42.407Z,100112.88
2023-01-13T10:41:25.881Z,100111.88
2023-01-13T10:49:01.201Z,100111.00
2023-01-13T10:56:36.423Z,100104.78
2023-01-13T11:04:28.491Z,100106.69
2023-01-13T11:12:03.963Z,100114.03
2023-01-13T11:19:43.351Z,100094.53
2023-01-13T11:27:23.853Z,100096.41
2023-01-13T11:35:01.730Z,100109.84
2023-01-13T11:42:43.584Z,100091.25
2023-01-13T11:50:20.396Z,100101.91
2023-01-13T11:58:10.490Z,100110.88
2023-01-13T12:05:49.601Z,100098.44
2023-01-13T12:13:36.976Z,100104.72
2023-01-13T12:21:20.944Z,100102.94
2023-01-13T12:29:00.506Z,100113.59
2023-01-13T12:36:49.304Z,100120.66
2023-01-13T12:44:24.808Z,100109.97
2023-01-13T12:52:22.963Z,100120.66
2023-01-13T13:00:18.207Z,100127.78
2023-01-13T13:07:54.396Z,100127.75
2023-01-13T13:15:31.005Z,100141.03
2023-01-13T13:23:38.428Z,100140.97
2023-01-13T13:31:32.207Z,100158.72
2023-01-13T13:39:37.592Z,100153.31
2023-01-13T13:47:15.228Z,100153.25
2023-01-13T13:54:52.296Z,100155.00
2023-01-13T14:02:30.664Z,100166.50
2023-01-13T14:10:04.991Z,100182.53
2023-01-13T14:17:40.096Z,100187.00
2023-01-13T14:25:33.700Z,100187.00
2023-01-13T14:33:16.625Z,100189.66
2023-01-13T14:40:50.403Z,100195.88
2023-01-13T14:48:33.420Z,100193.16
2023-01-13T14:56:42.782Z,100186.06
2023-01-13T15:04:18.982Z,100198.44
2023-01-13T15:11:54.261Z,100192.13
2023-01-13T15:19:30.162Z,100194.69
2023-01-13T15:27:15.469Z,100210.53
2023-01-13T15:34:53.143Z,100221.06
2023-01-13T15:42:58.966Z,100224.56
2023-01-13T15:50:34.219Z,100230.75
2023-01-13T15:58:08.274Z,100229.97
2023-01-13T16:05:45.026Z,100225.53
2023-01-13T16:13:18.985Z,100240.66
2023-01-13T16:20:55.282Z,100241.50
2023-01-13T16:28:29.790Z,100237.06
2023-01-13T16:36:12.330Z,100255.78
2023-01-13T16:43:46.539Z,100279.72
2023-01-13T16:51:24.598Z,100269.75
2023-01-13T16:59:00.294Z,100296.25
2023-01-13T17:06:38.689Z,100302.47
2023-01-13T17:14:18.428Z,100311.28
2023-01-13T17:21:54.715Z,100312.94
2023-01-13T17:29:28.902Z,100328.84
2023-01-13T17:37:04.054Z,100324.34
2023-01-13T17:44:39.867Z,100335.75
2023-01-13T17:52:15.091Z,100342.81
2023-01-13T17:59:49.015Z,100357.88
2023-01-13T18:07:24.263Z,100366.78
2023-01-13T18:14:57.977Z,100379.34
2023-01-13T18:22:50.483Z,100393.56
2023-01-13T18:30:24.459Z,100392.78
2023-01-13T18:37:59.675Z,100384.81
2023-01-13T18:45:33.515Z,100383.00
2023-01-13T18:53:09.053Z,100398.13
2023-01-13T19:00:42.926Z,100412.31
2023-01-13T19:08:18.336Z,100423.84
2023-01-13T19:15:52.210Z,100435.44
2023-01-13T19:23:27.656Z,100435.53
2023-01-13T19:38:54.911Z,100445.03
2023-01-13T19:46:28.923Z,100462.69
2023-01-13T19:54:04.375Z,100466.25
2023-01-13T20:01:41.063Z,100475.91
2023-01-13T20:09:16.429Z,100484.69
2023-01-13T20:16:50.314Z,100497.88
2023-01-13T20:24:26.214Z,100516.53
2023-01-13T20:32:00.642Z,100522.75
2023-01-13T20:39:36.311Z,100532.47
2023-01-13T20:47:10.123Z,100527.97
2023-01-13T20:54:45.405Z,100537.66
2023-01-13T21:02:20.465Z,100545.50
2023-01-13T21:09:57.546Z,100548.88
2023-01-13T21:17:49.070Z,100557.75
2023-01-13T21:25:24.264Z,100563.78
2023-01-13T21:32:58.777Z,100585.00
2023-01-13T21:40:33.924Z,100597.47
2023-01-13T21:48:08.043Z,100592.97
2023-01-13T21:55:43.157Z,100587.59
2023-01-13T22:03:18.543Z,100595.56
2023-01-13T22:10:58.586Z,100607.03
2023-01-13T22:18:32.532Z,100599.84
2023-01-13T22:26:09.204Z,100610.41
2023-01-13T22:33:43.577Z,100611.25
2023-01-13T22:41:19.079Z,100619.00
2023-01-13T22:48:54.797Z,100635.66
2023-01-13T22:56:30.139Z,100647.91
2023-01-13T23:04:04.855Z,100664.75
2023-01-13T23:11:40.855Z,100651.44
2023-01-13T23:19:14.575Z,100665.66
2023-01-13T23:26:49.879Z,100664.53
2023-01-13T23:34:23.728Z,100661.66
2023-01-13T23:41:59.537Z,100679.34
2023-01-13T23:49:33.349Z,100693.59
2023-01-13T23:57:08.683Z,100689.25
